createdAt,value
2023-02-11T00:01:21.749Z,4.69
2023-02-11T00:04:12.781Z,5.69
2023-02-11T00:07:08.751Z,6.21
2023-02-11T00:10:02.902Z,6.24
2023-02-11T00:12:55.797Z,5.08
2023-02-11T00:15:48.882Z,4.03
2023-02-11T00:18:44.704Z,3.24
2023-02-11T00:21:37.552Z,2.61
2023-02-11T00:24:32.091Z,2.13
2023-02-11T00:27:24.802Z,1.77
2023-02-11T00:30:17.835Z,1.52
2023-02-11T00:33:10.633Z,1.29
2023-02-11T00:36:08.171Z,1.11
2023-02-11T00:39:04.447Z,0.96
2023-02-11T00:41:57.177Z,0.84
2023-02-11T00:44:50.423Z,1.10
2023-02-11T00:47:36.448Z,2.68
2023-02-11T00:50:29.702Z,4.15
2023-02-11T00:53:22.439Z,4.98
2023-02-11T00:56:15.253Z,5.17
2023-02-11T00:59:08.264Z,4.25
2023-02-11T01:02:01.566Z,3.35
2023-02-11T01:04:54.406Z,2.71
2023-02-11T01:07:48.382Z,2.22
2023-02-11T01:10:41.449Z,1.82
2023-02-11T01:13:37.324Z,1.51
2023-02-11T01:16:30.246Z,1.26
2023-02-11T01:19:23.015Z,1.05
2023-02-11T01:22:15.839Z,0.89
2023-02-11T01:25:09.451Z,0.75
2023-02-11T01:28:03.169Z,0.64
2023-02-11T01:30:48.857Z,0.85
2023-02-11T01:33:42.000Z,2.38
2023-02-11T01:36:34.840Z,3.87
2023-02-11T01:39:28.011Z,4.91
2023-02-11T01:42:23.585Z,5.31
2023-02-11T01:45:54.936Z,4.28
2023-02-11T01:48:53.341Z,3.08
2023-02-11T01:51:49.903Z,2.36
2023-02-11T01:55:05.157Z,1.84
2023-02-11T01:58:02.421Z,1.43
2023-02-11T02:00:57.718Z,1.15
2023-02-11T02:03:54.016Z,0.93
2023-02-11T02:06:51.143Z,0.75
2023-02-11T02:09:57.737Z,0.61
2023-02-11T02:12:50.878Z,0.51
2023-02-11T02:15:37.602Z,0.71
2023-02-11T02:18:45.296Z,2.32
2023-02-11T02:22:10.526Z,3.93
2023-02-11T02:25:21.017Z,5.12
2023-02-11T02:28:39.096Z,5.38
2023-02-11T02:31:53.703Z,4.09
2023-02-11T02:34:52.470Z,3.00
2023-02-11T02:37:53.917Z,2.30
2023-02-11T02:40:55.880Z,1.78
2023-02-11T02:43:51.850Z,1.35
2023-02-11T02:46:38.464Z,1.05
2023-02-11T02:49:33.125Z,0.80
2023-02-11T02:52:40.643Z,0.59
2023-02-11T02:55:54.199Z,0.41
2023-02-11T02:59:22.179Z,0.27
2023-02-11T03:02:23.182Z,0.14
2023-02-11T03:05:31.499Z,0.02
2023-02-11T03:08:31.285Z,-0.09
2023-02-11T03:11:25.900Z,0.12
2023-02-11T03:14:20.675Z,1.56
2023-02-11T03:17:15.569Z,3.03
2023-02-11T03:20:12.497Z,4.06
2023-02-11T03:23:06.256Z,4.24
2023-02-11T03:26:11.885Z,3.13
2023-02-11T03:29:15.668Z,2.07
2023-02-11T03:32:09.480Z,1.31
2023-02-11T03:35:05.659Z,0.73
2023-02-11T03:38:02.034Z,0.30
2023-02-11T03:40:57.061Z,-0.06
2023-02-11T03:43:55.849Z,-0.34
2023-02-11T03:46:52.972Z,-0.57
2023-02-11T03:49:37.493Z,-0.72
2023-02-11T03:52:30.706Z,-0.88
2023-02-11T03:55:20.218Z,-1.01
2023-02-11T03:58:13.517Z,-0.79
2023-02-11T04:01:09.920Z,0.48
2023-02-11T04:04:02.749Z,1.46
2023-02-11T04:06:48.406Z,2.34
2023-02-11T04:09:41.737Z,3.11
2023-02-11T04:12:34.838Z,3.30
2023-02-11T04:15:28.118Z,2.32
2023-02-11T04:18:20.928Z,1.37
2023-02-11T04:21:01.075Z,0.71
2023-02-11T04:23:53.852Z,0.19
2023-02-11T04:26:46.836Z,-0.20
2023-02-11T04:29:40.241Z,-0.51
2023-02-11T04:32:33.386Z,-0.75
2023-02-11T04:35:26.145Z,-0.94
2023-02-11T04:38:19.024Z,-1.09
2023-02-11T04:41:11.885Z,-1.20
2023-02-11T04:44:04.886Z,-0.95
2023-02-11T04:46:57.677Z,0.57
2023-02-11T04:49:50.476Z,1.86
2023-02-11T04:52:43.366Z,2.67
2023-02-11T04:55:36.539Z,3.38
2023-02-11T04:58:29.430Z,3.61
2023-02-11T05:01:22.338Z,2.54
2023-02-11T05:04:15.672Z,1.55
2023-02-11T05:07:08.564Z,0.83
2023-02-11T05:10:01.559Z,0.29
2023-02-11T05:12:56.028Z,-0.16
2023-02-11T05:15:50.148Z,-0.52
2023-02-11T05:18:44.538Z,-0.80
2023-02-11T05:21:37.741Z,-1.01
2023-02-11T05:24:30.634Z,-1.18
2023-02-11T05:27:24.441Z,-1.30
2023-02-11T05:30:17.913Z,-1.39
2023-02-11T05:33:10.750Z,-1.46
2023-02-11T05:36:06.077Z,-1.25
2023-02-11T05:38:58.930Z,0.02
2023-02-11T05:41:51.815Z,1.24
2023-02-11T05:44:45.255Z,2.05
2023-02-11T05:47:30.621Z,2.35
2023-02-11T05:50:16.042Z,2.26
2023-02-11T05:53:08.891Z,1.38
2023-02-11T05:56:01.960Z,0.60
2023-02-11T05:58:54.900Z,0.02
2023-02-11T06:01:47.669Z,-0.40
2023-02-11T06:04:40.592Z,-0.72
2023-02-11T06:07:33.528Z,-0.97
2023-02-11T06:10:26.273Z,-1.18
2023-02-11T06:13:19.850Z,-1.33
2023-02-11T06:16:12.711Z,-1.46
2023-02-11T06:19:05.815Z,-1.39
2023-02-11T06:21:58.772Z,-0.45
2023-02-11T06:25:01.382Z,0.58
2023-02-11T06:27:54.742Z,1.29
2023-02-11T06:30:41.391Z,1.84
2023-02-11T06:33:34.616Z,2.19
2023-02-11T06:36:27.825Z,2.17
2023-02-11T06:39:20.733Z,1.34
2023-02-11T06:42:08.023Z,0.62
2023-02-11T06:44:54.191Z,0.11
2023-02-11T06:47:46.975Z,-0.29
2023-02-11T06:50:39.734Z,-0.59
2023-02-11T06:53:32.794Z,-0.80
2023-02-11T06:56:28.235Z,-0.96
2023-02-11T06:59:14.283Z,-1.07
2023-02-11T07:02:07.223Z,-1.15
2023-02-11T07:04:56.754Z,-1.17
2023-02-11T07:07:49.676Z,-1.17
2023-02-11T07:10:42.885Z,-1.15
2023-02-11T07:13:36.496Z,-1.13
2023-02-11T07:16:21.055Z,-1.09
2023-02-11T07:19:14.229Z,-1.03
2023-02-11T07:21:49.986Z,-0.81
2023-02-11T07:24:25.070Z,0.04
2023-02-11T07:27:18.186Z,0.97
2023-02-11T07:30:16.583Z,1.79
2023-02-11T07:33:09.695Z,2.61
2023-02-11T07:36:05.356Z,3.00
2023-02-11T07:38:58.539Z,2.28
2023-02-11T07:41:47.918Z,1.58
2023-02-11T07:44:40.850Z,1.06
2023-02-11T07:47:35.781Z,0.70
2023-02-11T07:50:19.750Z,0.44
2023-02-11T07:53:11.710Z,0.25
2023-02-11T07:56:06.090Z,0.12
2023-02-11T07:58:51.782Z,0.03
2023-02-11T08:01:44.808Z,-0.00
2023-02-11T08:04:38.289Z,0.01
2023-02-11T08:07:31.337Z,0.06
2023-02-11T08:10:27.359Z,0.13
2023-02-11T08:13:20.269Z,0.18
2023-02-11T08:16:21.641Z,0.23
2023-02-11T08:19:17.117Z,0.24
2023-02-11T08:22:10.061Z,0.26
2023-02-11T08:25:06.249Z,0.29
2023-02-11T08:27:57.886Z,0.28
2023-02-11T08:30:33.103Z,0.31
2023-02-11T08:33:16.057Z,0.34
2023-02-11T08:36:14.080Z,0.40
2023-02-11T08:39:22.502Z,0.48
2023-02-11T08:42:09.250Z,0.57
2023-02-11T08:45:02.255Z,0.58
2023-02-11T08:47:48.077Z,0.53
2023-02-11T08:50:28.199Z,0.49
2023-02-11T08:53:21.121Z,0.48
2023-02-11T08:55:55.847Z,0.48
2023-02-11T08:58:49.032Z,0.49
2023-02-11T09:01:43.623Z,0.51
2023-02-11T09:04:36.675Z,0.52
2023-02-11T09:07:32.878Z,0.53
2023-02-11T09:10:25.929Z,0.53
2023-02-11T09:13:21.566Z,0.54
2023-02-11T09:16:06.994Z,0.63
2023-02-11T09:19:02.365Z,0.75
2023-02-11T09:21:54.046Z,0.90
2023-02-11T09:24:37.027Z,1.09
2023-02-11T09:27:31.367Z,1.37
2023-02-11T09:30:24.954Z,1.58
2023-02-11T09:33:17.913Z,1.74
2023-02-11T09:36:12.039Z,1.87
2023-02-11T09:39:06.606Z,1.95
2023-02-11T09:42:22.001Z,2.08
2023-02-11T09:45:20.412Z,2.21
2023-02-11T09:48:06.173Z,2.26
2023-02-11T09:50:41.452Z,2.29
2023-02-11T09:53:29.929Z,2.29
2023-02-11T09:56:23.171Z,2.38
2023-02-11T09:59:17.755Z,2.52
2023-02-11T10:02:17.655Z,2.56
2023-02-11T10:05:35.194Z,2.52
2023-02-11T10:08:28.689Z,2.55
2023-02-11T10:11:32.088Z,2.65
2023-02-11T10:14:21.296Z,2.84
2023-02-11T10:17:22.735Z,3.04
2023-02-11T10:20:26.404Z,3.14
2023-02-11T10:23:22.508Z,3.18
2023-02-11T10:26:20.759Z,3.18
2023-02-11T10:29:00.901Z,3.09
2023-02-11T10:31:57.929Z,2.92
2023-02-11T10:34:52.091Z,2.78
2023-02-11T10:37:45.753Z,2.69
2023-02-11T10:40:39.361Z,2.63
2023-02-11T10:43:36.328Z,2.61
2023-02-11T10:46:33.578Z,2.64
2023-02-11T10:49:42.307Z,2.81
2023-02-11T10:52:35.146Z,2.98
2023-02-11T10:55:30.126Z,3.13
2023-02-11T10:58:33.295Z,3.28
2023-02-11T11:01:38.696Z,3.45
2023-02-11T11:04:45.116Z,3.49
2023-02-11T11:07:39.690Z,3.51
2023-02-11T11:10:44.618Z,3.55
2023-02-11T11:13:40.077Z,3.54
2023-02-11T11:16:28.349Z,3.62
2023-02-11T11:19:25.338Z,3.77
2023-02-11T11:22:24.898Z,3.85
2023-02-11T11:25:30.696Z,3.88
2023-02-11T11:28:26.544Z,3.97
2023-02-11T11:31:23.425Z,4.06
2023-02-11T11:34:31.036Z,4.14
2023-02-11T11:37:27.955Z,4.20
2023-02-11T11:40:29.143Z,4.25
2023-02-11T11:43:23.924Z,4.33
2023-02-11T11:46:07.801Z,4.43
2023-02-11T11:48:53.209Z,4.58
2023-02-11T11:51:43.552Z,4.71
2023-02-11T11:54:26.537Z,4.86
2023-02-11T11:57:24.380Z,5.00
2023-02-11T12:00:22.222Z,4.99
2023-02-11T12:03:29.293Z,4.87
2023-02-11T12:06:33.785Z,4.70
2023-02-11T12:09:34.013Z,4.59
2023-02-11T12:12:40.889Z,4.63
2023-02-11T12:15:36.480Z,4.72
2023-02-11T12:18:38.645Z,4.76
2023-02-11T12:21:55.484Z,4.79
2023-02-11T12:25:10.053Z,4.87
2023-02-11T12:28:09.061Z,4.97
2023-02-11T12:31:15.341Z,4.99
2023-02-11T12:34:27.263Z,4.91
2023-02-11T12:37:43.944Z,4.87
2023-02-11T12:40:26.647Z,4.70
2023-02-11T12:43:25.798Z,4.47
2023-02-11T12:46:43.523Z,4.22
2023-02-11T12:49:55.903Z,4.04
2023-02-11T12:53:19.210Z,3.92
2023-02-11T12:56:18.952Z,3.77
2023-02-11T12:59:18.755Z,3.70
2023-02-11T13:02:13.516Z,3.64
2023-02-11T13:05:19.995Z,3.60
2023-02-11T13:08:17.685Z,3.62
2023-02-11T13:11:15.165Z,3.65
2023-02-11T13:14:17.896Z,3.68
2023-02-11T13:17:21.293Z,3.64
2023-02-11T13:20:27.668Z,3.58
2023-02-11T13:23:24.582Z,3.52
2023-02-11T13:26:25.020Z,3.48
2023-02-11T13:29:33.346Z,3.44
2023-02-11T13:32:19.088Z,3.41
2023-02-11T13:35:06.082Z,3.35
2023-02-11T13:38:00.409Z,3.31
2023-02-11T13:41:04.482Z,3.25
2023-02-11T13:44:27.411Z,3.19
2023-02-11T13:47:43.122Z,3.11
2023-02-11T13:50:40.950Z,3.03
2023-02-11T13:53:45.739Z,2.92
2023-02-11T13:56:41.230Z,2.82
2023-02-11T13:59:51.500Z,2.72
2023-02-11T14:03:01.852Z,2.59
2023-02-11T14:06:30.774Z,2.50
2023-02-11T14:09:40.083Z,2.43
2023-02-11T14:12:36.224Z,2.39
2023-02-11T14:16:04.545Z,2.35
2023-02-11T14:19:04.567Z,2.33
2023-02-11T14:22:06.021Z,2.32
2023-02-11T14:25:02.193Z,2.29
2023-02-11T14:27:59.332Z,2.60
2023-02-11T14:31:05.179Z,3.98
2023-02-11T14:34:24.347Z,5.07
2023-02-11T14:37:33.097Z,6.07
2023-02-11T14:40:33.452Z,6.82
2023-02-11T14:43:30.704Z,7.33
2023-02-11T14:46:27.785Z,7.62
2023-02-11T14:49:29.782Z,7.87
2023-02-11T14:52:30.396Z,7.64
2023-02-11T14:55:34.650Z,6.15
2023-02-11T14:58:29.675Z,4.82
2023-02-11T15:01:35.429Z,3.87
2023-02-11T15:04:30.282Z,3.50
2023-02-11T15:07:23.652Z,4.50
2023-02-11T15:10:25.898Z,5.30
2023-02-11T15:13:27.303Z,5.98
2023-02-11T15:16:23.817Z,6.51
2023-02-11T15:19:25.736Z,6.77
2023-02-11T15:22:25.038Z,6.92
2023-02-11T15:25:20.040Z,6.97
2023-02-11T15:28:26.058Z,7.07
2023-02-11T15:31:21.166Z,7.12
2023-02-11T15:34:11.608Z,7.22
2023-02-11T15:36:54.731Z,7.21
2023-02-11T15:39:47.813Z,7.13
2023-02-11T15:42:52.595Z,7.01
2023-02-11T15:45:55.447Z,7.07
2023-02-11T15:48:44.127Z,7.07
2023-02-11T15:51:42.527Z,7.11
2023-02-11T15:54:34.674Z,7.25
2023-02-11T15:57:27.816Z,7.29
2023-02-11T16:00:23.500Z,6.80
2023-02-11T16:03:09.455Z,5.41
2023-02-11T16:06:24.145Z,4.11
2023-02-11T16:09:33.531Z,3.08
2023-02-11T16:12:29.353Z,2.95
2023-02-11T16:15:48.351Z,4.12
2023-02-11T16:18:52.033Z,4.94
2023-02-11T16:21:49.214Z,5.56
2023-02-11T16:24:42.920Z,5.90
2023-02-11T16:27:40.073Z,6.02
2023-02-11T16:30:38.454Z,6.17
2023-02-11T16:33:31.746Z,6.54
2023-02-11T16:36:18.616Z,7.00
2023-02-11T16:39:12.068Z,7.21
2023-02-11T16:42:07.438Z,7.29
2023-02-11T16:45:00.358Z,6.89
2023-02-11T16:47:44.480Z,5.56
2023-02-11T16:50:38.034Z,4.27
2023-02-11T16:53:26.616Z,3.40
2023-02-11T16:56:19.742Z,3.06
2023-02-11T16:59:13.186Z,4.05
2023-02-11T17:02:00.681Z,4.97
2023-02-11T17:04:48.204Z,5.67
2023-02-11T17:07:41.296Z,6.17
2023-02-11T17:10:37.892Z,6.44
2023-02-11T17:13:30.861Z,6.68
2023-02-11T17:16:27.782Z,6.74
2023-02-11T17:19:22.302Z,6.77
2023-02-11T17:22:15.361Z,7.05
2023-02-11T17:25:09.453Z,7.24
2023-02-11T17:28:02.437Z,6.89
2023-02-11T17:30:55.439Z,5.57
2023-02-11T17:33:48.792Z,4.37
2023-02-11T17:36:42.077Z,3.48
2023-02-11T17:39:35.110Z,3.30
2023-02-11T17:42:29.450Z,4.50
2023-02-11T17:45:22.622Z,5.56
2023-02-11T17:48:16.075Z,6.30
2023-02-11T17:51:00.552Z,6.73
2023-02-11T17:53:43.420Z,7.12
2023-02-11T17:56:26.391Z,7.41
2023-02-11T17:59:19.807Z,7.61
2023-02-11T18:02:14.405Z,7.77
2023-02-11T18:05:08.087Z,7.61
2023-02-11T18:08:01.384Z,6.30
2023-02-11T18:10:54.319Z,5.04
2023-02-11T18:13:54.832Z,4.13
2023-02-11T18:16:50.649Z,3.85
2023-02-11T18:19:43.643Z,5.03
2023-02-11T18:22:40.219Z,5.99
2023-02-11T18:25:33.504Z,6.57
2023-02-11T18:28:26.641Z,6.94
2023-02-11T18:31:22.031Z,7.30
2023-02-11T18:34:17.255Z,7.58
2023-02-11T18:37:10.413Z,7.82
2023-02-11T18:39:47.338Z,8.00
2023-02-11T18:42:40.372Z,7.79
2023-02-11T18:45:34.215Z,6.49
2023-02-11T18:48:09.822Z,5.44
2023-02-11T18:51:02.617Z,4.57
2023-02-11T18:53:55.908Z,4.23
2023-02-11T18:56:50.143Z,5.16
2023-02-11T18:59:28.041Z,6.01
2023-02-11T19:02:22.075Z,6.65
2023-02-11T19:05:15.791Z,7.21
2023-02-11T19:08:10.269Z,7.59
2023-02-11T19:11:06.842Z,7.89
2023-02-11T19:13:59.626Z,8.07
2023-02-11T19:16:57.458Z,8.31
2023-02-11T19:19:50.563Z,8.44
2023-02-11T19:22:44.958Z,8.69
2023-02-11T19:25:37.946Z,8.87
2023-02-11T19:28:33.202Z,9.02
2023-02-11T19:31:16.449Z,9.16
2023-02-11T19:34:09.453Z,8.58
2023-02-11T19:37:02.296Z,7.13
2023-02-11T19:39:55.379Z,5.97
2023-02-11T19:42:48.365Z,5.60
2023-02-11T19:45:41.561Z,6.57
2023-02-11T19:48:27.142Z,7.37
2023-02-11T19:51:20.729Z,7.85
2023-02-11T19:54:13.617Z,8.21
2023-02-11T19:57:06.833Z,8.52
2023-02-11T20:00:01.503Z,8.72
2023-02-11T20:02:54.444Z,8.92
2023-02-11T20:05:40.361Z,9.01
2023-02-11T20:08:33.548Z,9.16
2023-02-11T20:11:28.254Z,9.32
2023-02-11T20:14:12.921Z,9.21
2023-02-11T20:17:08.158Z,8.01
2023-02-11T20:20:01.360Z,6.69
2023-02-11T20:22:36.792Z,6.09
2023-02-11T20:25:17.850Z,6.86
2023-02-11T20:27:54.088Z,7.71
2023-02-11T20:30:34.741Z,8.21
2023-02-11T20:33:28.594Z,8.64
2023-02-11T20:36:16.697Z,8.91
2023-02-11T20:39:17.245Z,9.07
2023-02-11T20:42:14.431Z,9.16
2023-02-11T20:45:09.337Z,9.28
2023-02-11T20:48:02.211Z,9.35
2023-02-11T20:50:54.223Z,9.32
2023-02-11T20:53:50.034Z,9.31
2023-02-11T20:56:45.502Z,9.32
2023-02-11T20:59:40.006Z,9.30
2023-02-11T21:02:33.039Z,9.28
2023-02-11T21:05:25.863Z,9.36
2023-02-11T21:08:19.366Z,9.43
2023-02-11T21:11:12.547Z,9.35
2023-02-11T21:14:06.065Z,8.26
2023-02-11T21:16:59.345Z,6.99
2023-02-11T21:19:52.828Z,6.38
2023-02-11T21:22:38.436Z,6.98
2023-02-11T21:25:32.618Z,7.55
2023-02-11T21:28:27.382Z,7.73
2023-02-11T21:31:25.115Z,7.84
2023-02-11T21:34:17.991Z,8.08
2023-02-11T21:37:09.516Z,8.25
2023-02-11T21:40:02.427Z,8.38
2023-02-11T21:42:56.865Z,8.56
2023-02-11T21:45:51.712Z,8.69
2023-02-11T21:48:44.735Z,8.71
2023-02-11T21:51:38.085Z,8.90
2023-02-11T21:54:33.794Z,9.11
2023-02-11T21:57:26.559Z,9.14
2023-02-11T22:00:21.209Z,9.09
2023-02-11T22:03:15.029Z,9.15
2023-02-11T22:06:01.597Z,9.18
2023-02-11T22:08:55.105Z,9.26
2023-02-11T22:11:49.372Z,9.24
2023-02-11T22:14:42.203Z,9.20
2023-02-11T22:17:36.277Z,9.05
2023-02-11T22:20:29.312Z,8.97
2023-02-11T22:23:22.623Z,8.96
2023-02-11T22:26:17.651Z,9.04
2023-02-11T22:29:10.916Z,9.19
2023-02-11T22:32:03.833Z,9.21
2023-02-11T22:34:46.004Z,9.35
2023-02-11T22:37:38.808Z,9.48
2023-02-11T22:40:31.759Z,9.43
2023-02-11T22:43:24.755Z,9.35
2023-02-11T22:46:20.573Z,9.17
2023-02-11T22:49:15.707Z,9.25
2023-02-11T22:52:08.752Z,9.35
2023-02-11T22:55:01.656Z,9.32
2023-02-11T22:57:54.430Z,9.49
2023-02-11T23:00:47.275Z,9.56
2023-02-11T23:03:40.486Z,9.52
2023-02-11T23:06:34.396Z,9.44
2023-02-11T23:09:28.363Z,9.41
2023-02-11T23:12:21.426Z,9.45
2023-02-11T23:15:15.312Z,9.39
2023-02-11T23:18:08.696Z,9.29
2023-02-11T23:21:06.813Z,9.13
2023-02-11T23:23:59.010Z,9.17
2023-02-11T23:26:51.456Z,9.17
2023-02-11T23:29:44.293Z,9.27
2023-02-11T23:32:41.019Z,9.23
2023-02-11T23:35:34.189Z,9.16
2023-02-11T23:38:28.815Z,9.19
2023-02-11T23:41:22.237Z,9.21
2023-02-11T23:44:17.806Z,9.23
2023-02-11T23:47:10.628Z,9.44
2023-02-11T23:50:05.184Z,9.40
2023-02-11T23:52:50.961Z,9.32
2023-02-11T23:55:45.806Z,9.27
2023-02-11T23:58:39.030Z,9.32
